createdAt,value
2023-05-18T08:55:03.706Z,0.02
2023-05-18T08:56:03.972Z,0.02
2023-05-18T08:57:04.411Z,0.03
2023-05-18T08:58:04.863Z,0.03
2023-05-18T08:59:05.311Z,0.04
2023-05-18T09:00:05.793Z,0.04
2023-05-18T09:01:06.284Z,0.05
2023-05-18T09:02:06.819Z,0.05
2023-05-18T09:03:07.224Z,0.06
2023-05-18T09:04:07.608Z,0.06
2023-05-18T09:05:08.148Z,0.06
2023-05-18T09:06:08.523Z,0.07
2023-05-18T09:07:08.973Z,0.07
2023-05-18T09:08:09.448Z,0.08
2023-05-18T09:09:09.909Z,0.08
2023-05-18T09:10:10.377Z,0.09
2023-05-18T09:11:10.811Z,0.09
2023-05-18T09:12:11.283Z,0.10
2023-05-18T09:13:11.730Z,0.10
2023-05-18T09:14:12.188Z,0.10
2023-05-18T09:15:12.667Z,0.10
2023-05-18T09:16:13.153Z,0.11
2023-05-18T09:17:13.563Z,0.11
2023-05-18T09:18:14.042Z,0.11
2023-05-18T09:19:14.545Z,0.11
2023-05-18T09:20:14.957Z,0.12
2023-05-18T09:21:15.380Z,0.13
2023-05-18T09:22:15.840Z,0.13
2023-05-18T09:23:16.293Z,0.13
2023-05-18T09:24:16.764Z,0.13
2023-05-18T09:25:17.219Z,0.13
2023-05-18T09:26:17.668Z,0.14
2023-05-18T09:27:18.131Z,0.14
2023-05-18T09:28:18.584Z,0.15
2023-05-18T09:29:19.051Z,0.15
2023-05-18T09:30:19.497Z,0.16
2023-05-18T09:31:20.008Z,0.16
2023-05-18T09:32:20.425Z,0.17
2023-05-18T09:33:20.956Z,0.17
2023-05-18T09:34:21.331Z,0.17
2023-05-18T09:35:21.789Z,0.18
2023-05-18T09:36:22.245Z,0.18
2023-05-18T09:37:22.708Z,0.18
2023-05-18T09:38:23.200Z,0.18
2023-05-18T09:39:23.629Z,0.19
2023-05-18T09:40:24.076Z,0.20
2023-05-18T09:41:24.530Z,0.20
2023-05-18T09:42:25.005Z,0.21
2023-05-18T09:43:25.449Z,0.21
2023-05-18T09:44:25.913Z,0.21
2023-05-18T09:45:26.372Z,0.21
2023-05-18T09:46:26.871Z,0.20
2023-05-18T09:47:27.395Z,0.21
2023-05-18T09:48:27.775Z,0.21
2023-05-18T09:49:28.217Z,0.21
2023-05-18T09:50:28.694Z,0.22
2023-05-18T09:51:29.153Z,0.24
2023-05-18T09:52:29.625Z,0.24
2023-05-18T09:53:30.078Z,0.24
2023-05-18T09:54:30.541Z,0.24
2023-05-18T09:55:31.338Z,0.26
2023-05-18T09:56:31.458Z,0.27
2023-05-18T09:57:31.925Z,0.27
2023-05-18T09:58:32.378Z,0.29
2023-05-18T09:59:32.835Z,0.29
2023-05-18T10:00:33.314Z,0.30
2023-05-18T10:01:33.833Z,0.29
2023-05-18T10:02:34.301Z,0.28
2023-05-18T10:03:34.681Z,0.29
2023-05-18T10:04:35.226Z,0.29
2023-05-18T10:05:36.598Z,0.29
2023-05-18T10:06:36.068Z,0.31
2023-05-18T10:07:36.585Z,0.32
2023-05-18T10:08:36.997Z,0.33
2023-05-18T10:09:37.440Z,0.34
2023-05-18T10:10:37.902Z,0.34
2023-05-18T10:11:38.366Z,0.33
2023-05-18T10:12:38.834Z,0.34
2023-05-18T10:13:39.286Z,0.34
2023-05-18T10:14:39.751Z,0.35
2023-05-18T10:15:40.207Z,0.36
2023-05-18T10:16:40.734Z,0.37
2023-05-18T10:17:41.263Z,0.37
2023-05-18T10:18:41.667Z,0.37
2023-05-18T10:19:42.049Z,0.38
2023-05-18T10:20:42.513Z,0.39
2023-05-18T10:21:42.962Z,0.40
2023-05-18T10:22:43.427Z,0.40
2023-05-18T10:23:43.873Z,0.41
2023-05-18T10:24:44.330Z,0.40
2023-05-18T10:25:44.784Z,0.42
2023-05-18T10:26:45.247Z,0.42
2023-05-18T10:27:45.706Z,0.42
2023-05-18T10:28:46.147Z,0.41
2023-05-18T10:29:46.612Z,0.40
2023-05-18T10:30:47.071Z,0.41
2023-05-18T10:31:47.516Z,0.42
2023-05-18T10:32:48.010Z,0.43
2023-05-18T10:33:48.424Z,0.44
2023-05-18T10:34:48.878Z,0.42
2023-05-18T10:35:49.365Z,0.42
2023-05-18T10:36:49.793Z,0.42
2023-05-18T10:37:50.310Z,0.43
2023-05-18T10:38:50.703Z,0.43
2023-05-18T10:39:51.180Z,0.43
2023-05-18T10:40:52.051Z,0.43
2023-05-18T10:41:52.086Z,0.44
2023-05-18T10:42:52.561Z,0.44
2023-05-18T10:43:52.997Z,0.43
2023-05-18T10:44:53.461Z,0.44
2023-05-18T10:45:53.972Z,0.44
2023-05-18T10:46:54.637Z,0.42
2023-05-18T10:47:54.895Z,0.42
2023-05-18T10:48:55.286Z,0.43
2023-05-18T10:49:55.750Z,0.45
2023-05-18T10:50:56.204Z,0.46
2023-05-18T10:51:56.670Z,0.47
2023-05-18T10:52:57.138Z,0.48
2023-05-18T10:53:57.584Z,0.48
2023-05-18T10:54:58.036Z,0.47
2023-05-18T10:55:58.508Z,0.48
2023-05-18T10:56:58.958Z,0.49
2023-05-18T10:57:59.440Z,0.50
2023-05-18T10:58:59.888Z,0.51
2023-05-18T11:00:00.348Z,0.51
2023-05-18T11:01:00.807Z,0.49
2023-05-18T11:02:01.333Z,0.49
2023-05-18T11:03:01.811Z,0.48
2023-05-18T11:04:02.199Z,0.49
2023-05-18T11:05:02.733Z,0.50
2023-05-18T11:07:05.275Z,0.51
2023-05-18T11:08:05.827Z,0.52
2023-05-18T11:09:06.204Z,0.52
2023-05-18T11:10:06.670Z,0.53
2023-05-18T11:11:07.140Z,0.51
2023-05-18T11:12:07.602Z,0.51
2023-05-18T11:13:08.070Z,0.51
2023-05-18T11:14:08.521Z,0.52
2023-05-18T11:15:09.013Z,0.52
2023-05-18T11:16:09.475Z,0.53
2023-05-18T11:17:09.908Z,0.53
2023-05-18T11:18:10.434Z,0.53
2023-05-18T11:19:10.861Z,0.53
2023-05-18T11:20:11.300Z,0.51
2023-05-18T11:21:11.764Z,0.51
2023-05-18T11:22:12.236Z,0.51
2023-05-18T11:23:12.708Z,0.52
2023-05-18T11:24:13.188Z,0.52
2023-05-18T11:25:13.624Z,0.53
2023-05-18T11:26:14.088Z,0.53
2023-05-18T11:27:14.549Z,0.53
2023-05-18T11:28:15.059Z,0.54
2023-05-18T11:29:15.490Z,0.53
2023-05-18T11:30:16.043Z,0.55
2023-05-18T11:31:16.411Z,0.55
2023-05-18T11:32:22.614Z,0.55
2023-05-18T11:33:17.504Z,0.55
2023-05-18T11:34:17.821Z,0.57
2023-05-18T11:35:18.267Z,0.56
2023-05-18T11:36:18.733Z,0.60
2023-05-18T11:37:19.199Z,0.57
2023-05-18T11:38:19.669Z,0.57
2023-05-18T11:39:20.122Z,0.56
2023-05-18T11:40:20.581Z,0.57
2023-05-18T11:41:21.040Z,0.59
2023-05-18T11:42:21.510Z,0.59
2023-05-18T11:43:21.998Z,0.59
2023-05-18T11:44:22.427Z,0.59
2023-05-18T11:45:22.888Z,0.60
2023-05-18T11:46:23.358Z,0.60
2023-05-18T11:47:23.815Z,0.58
2023-05-18T11:48:24.421Z,0.58
2023-05-18T11:49:24.738Z,0.61
2023-05-18T11:50:25.209Z,0.63
2023-05-18T11:51:25.659Z,0.63
2023-05-18T11:52:26.127Z,0.64
2023-05-18T11:53:26.594Z,0.65
2023-05-18T11:54:27.041Z,0.66
2023-05-18T11:55:27.500Z,0.64
2023-05-18T11:56:27.960Z,0.64
2023-05-18T11:57:28.418Z,0.63
2023-05-18T11:58:28.896Z,0.62
2023-05-18T11:59:29.335Z,0.63
2023-05-18T12:00:29.959Z,0.65
2023-05-18T12:01:30.251Z,0.66
2023-05-18T12:02:30.822Z,0.65
2023-05-18T12:03:31.372Z,0.66
2023-05-18T12:04:31.667Z,0.68
2023-05-18T12:05:32.099Z,0.66
2023-05-18T12:06:32.556Z,0.68
2023-05-18T12:07:33.057Z,0.65
2023-05-18T12:08:33.524Z,0.62
2023-05-18T12:09:33.953Z,0.64
2023-05-18T12:10:34.508Z,0.65
2023-05-18T12:11:34.875Z,0.61
2023-05-18T12:12:35.346Z,0.62
2023-05-18T12:13:35.816Z,0.64
2023-05-18T12:14:36.276Z,0.66
2023-05-18T12:15:36.723Z,0.65
2023-05-18T12:16:37.204Z,0.65
2023-05-18T12:17:37.683Z,0.65
2023-05-18T12:18:38.153Z,0.65
2023-05-18T12:19:38.567Z,0.67
2023-05-18T12:20:39.034Z,0.71
2023-05-18T12:21:39.477Z,0.75
2023-05-18T12:22:39.946Z,0.78
2023-05-18T12:23:40.411Z,0.77
2023-05-18T12:24:40.850Z,0.77
2023-05-18T12:25:41.320Z,0.79
2023-05-18T12:26:41.764Z,0.79
2023-05-18T12:27:42.220Z,0.74
2023-05-18T12:28:42.703Z,0.75
2023-05-18T12:29:43.154Z,0.74
2023-05-18T12:30:43.637Z,0.77
2023-05-18T12:31:44.103Z,0.78
2023-05-18T12:32:44.565Z,0.75
2023-05-18T12:33:44.989Z,0.75
2023-05-18T12:34:45.439Z,0.78
2023-05-18T12:35:45.880Z,0.81
2023-05-18T12:36:46.345Z,0.83
2023-05-18T12:37:46.837Z,0.80
2023-05-18T12:38:47.282Z,0.78
2023-05-18T12:39:47.718Z,0.82
2023-05-18T12:40:48.175Z,0.84
2023-05-18T12:41:48.632Z,0.82
2023-05-18T12:42:49.095Z,0.80
2023-05-18T12:43:49.566Z,0.77
2023-05-18T12:44:50.016Z,0.74
2023-05-18T12:45:50.463Z,0.72
2023-05-18T12:46:50.931Z,0.74
2023-05-18T12:47:51.511Z,0.74
2023-05-18T12:48:51.861Z,0.76
2023-05-18T12:49:52.305Z,0.79
2023-05-18T12:50:52.748Z,0.79
2023-05-18T12:51:53.203Z,0.79
2023-05-18T12:52:53.662Z,0.77
2023-05-18T12:53:54.137Z,0.81
2023-05-18T12:54:54.565Z,0.83
2023-05-18T12:55:55.089Z,0.83
2023-05-18T12:56:55.474Z,0.81
2023-05-18T12:57:55.934Z,0.81
2023-05-18T12:58:56.416Z,0.81
2023-05-18T12:59:56.847Z,0.83
2023-05-18T13:00:57.305Z,0.84
2023-05-18T13:01:57.781Z,0.84
2023-05-18T13:02:58.324Z,0.85
2023-05-18T13:03:58.848Z,0.86
2023-05-18T13:04:59.145Z,0.86
2023-05-18T13:05:59.600Z,0.88
2023-05-18T13:07:00.060Z,0.86
2023-05-18T13:08:00.513Z,0.88
2023-05-18T13:09:00.990Z,0.87
2023-05-18T13:10:02.135Z,0.90
2023-05-18T13:11:12.720Z,0.95
2023-05-18T13:13:02.809Z,0.93
2023-05-18T13:14:03.346Z,0.93
2023-05-18T13:15:03.709Z,0.91
2023-05-18T13:16:04.161Z,0.92
2023-05-18T13:17:04.671Z,0.99
2023-05-18T13:18:05.096Z,0.99
2023-05-18T13:19:05.607Z,1.00
2023-05-18T13:20:05.959Z,0.97
2023-05-18T13:21:06.410Z,0.94
2023-05-18T13:22:06.859Z,0.92
2023-05-18T13:23:07.323Z,0.92
2023-05-18T13:24:07.784Z,0.92
2023-05-18T13:25:08.207Z,0.97
2023-05-18T13:26:08.661Z,0.97
2023-05-18T13:27:09.105Z,1.03
2023-05-18T13:28:09.557Z,1.04
2023-05-18T13:29:10.021Z,1.03
2023-05-18T13:30:10.456Z,1.03
2023-05-18T13:31:12.871Z,1.00
2023-05-18T13:32:11.398Z,1.09
2023-05-18T13:33:11.852Z,1.16
2023-05-18T13:34:12.279Z,1.22
2023-05-18T13:35:12.690Z,1.14
2023-05-18T13:36:13.138Z,1.09
2023-05-18T13:37:14.804Z,1.12
2023-05-18T13:38:14.034Z,1.17
2023-05-18T13:39:14.501Z,1.17
2023-05-18T13:40:15.747Z,1.14
2023-05-18T13:41:15.477Z,1.11
2023-05-18T13:42:15.837Z,1.08
2023-05-18T13:43:16.279Z,1.10
2023-05-18T13:44:16.730Z,1.13
2023-05-18T13:45:17.200Z,1.13
2023-05-18T13:46:17.640Z,1.13
2023-05-18T13:47:18.056Z,1.10
2023-05-18T13:48:18.549Z,1.07
2023-05-18T13:49:18.971Z,1.15
2023-05-18T13:50:19.512Z,1.22
2023-05-18T13:51:19.914Z,1.35
2023-05-18T13:52:20.299Z,1.43
2023-05-18T13:53:20.749Z,1.52
2023-05-18T13:54:21.217Z,1.52
2023-05-18T13:55:21.640Z,1.50
2023-05-18T13:56:22.084Z,1.45
2023-05-18T13:57:22.534Z,1.42
2023-05-18T13:58:22.976Z,1.46
2023-05-18T13:59:23.447Z,1.37
2023-05-18T14:00:23.866Z,1.38
2023-05-18T14:01:24.387Z,1.38
2023-05-18T14:02:24.800Z,1.32
2023-05-18T14:03:25.283Z,1.37
2023-05-18T14:04:25.667Z,1.50
2023-05-18T14:05:26.092Z,1.43
2023-05-18T14:06:26.537Z,1.39
2023-05-18T14:07:26.980Z,1.32
2023-05-18T14:08:27.428Z,1.35
2023-05-18T14:09:27.906Z,1.35
2023-05-18T14:10:28.520Z,1.34
2023-05-18T14:11:28.758Z,1.45
2023-05-18T14:12:29.209Z,1.49
2023-05-18T14:13:29.651Z,1.56
2023-05-18T14:14:30.116Z,1.49
2023-05-18T14:15:30.536Z,1.52
2023-05-18T14:16:31.010Z,1.58
2023-05-18T14:17:31.469Z,1.47
2023-05-18T14:18:31.878Z,1.46
2023-05-18T14:19:32.334Z,1.40
2023-05-18T14:20:32.977Z,1.47
2023-05-18T14:21:33.204Z,1.50
2023-05-18T14:22:33.658Z,1.45
2023-05-18T14:23:34.095Z,1.41
2023-05-18T14:24:34.565Z,1.38
2023-05-18T14:25:35.005Z,1.29
2023-05-18T14:26:35.444Z,1.25
2023-05-18T14:27:35.880Z,1.30
2023-05-18T14:28:36.323Z,1.54
2023-05-18T14:29:36.794Z,1.52
2023-05-18T14:30:37.218Z,1.48
2023-05-18T14:31:37.778Z,1.66
2023-05-18T14:32:38.195Z,1.74
2023-05-18T14:33:38.540Z,1.79
2023-05-18T14:34:39.028Z,1.78
2023-05-18T14:35:39.428Z,1.81
2023-05-18T14:36:39.882Z,1.80
2023-05-18T14:37:40.317Z,1.71
2023-05-18T14:38:40.763Z,1.71
2023-05-18T14:39:41.223Z,1.81
2023-05-18T14:40:41.661Z,1.94
2023-05-18T14:41:42.120Z,1.98
2023-05-18T14:42:42.553Z,2.03
2023-05-18T14:43:42.976Z,2.03
2023-05-18T14:44:43.451Z,2.03
2023-05-18T14:45:48.378Z,2.03
2023-05-18T14:46:44.354Z,1.95
2023-05-18T14:47:44.784Z,1.92
2023-05-18T14:48:45.194Z,1.94
2023-05-18T14:49:45.654Z,1.90
2023-05-18T14:50:46.085Z,1.96
2023-05-18T14:51:46.526Z,1.96
2023-05-18T14:52:46.976Z,2.08
2023-05-18T14:53:47.409Z,2.08
2023-05-18T14:54:47.877Z,2.06
2023-05-18T14:55:48.295Z,1.99
2023-05-18T14:56:48.743Z,1.96
2023-05-18T14:57:49.188Z,1.94
2023-05-18T14:58:49.656Z,2.04
2023-05-18T14:59:50.084Z,2.03
2023-05-18T15:00:50.509Z,2.08
2023-05-18T15:01:50.978Z,2.08
2023-05-18T15:02:51.457Z,2.02
2023-05-18T15:03:52.010Z,2.02
2023-05-18T15:04:52.299Z,2.01
2023-05-18T15:05:52.724Z,2.06
2023-05-18T15:06:53.199Z,2.15
2023-05-18T15:07:53.610Z,2.18
2023-05-18T15:08:54.054Z,2.10
2023-05-18T15:09:54.516Z,2.13
2023-05-18T15:10:54.950Z,2.10
2023-05-18T15:11:55.375Z,2.14
2023-05-18T15:12:55.821Z,2.21
2023-05-18T15:13:56.258Z,2.20
2023-05-18T15:14:56.737Z,2.09
2023-05-18T15:15:57.183Z,2.11
2023-05-18T15:16:57.600Z,2.12
2023-05-18T15:17:58.045Z,2.01
2023-05-18T15:18:58.602Z,2.03
2023-05-18T15:19:58.940Z,2.13
2023-05-18T15:20:59.366Z,2.26
2023-05-18T15:21:59.813Z,2.32
2023-05-18T15:23:00.246Z,2.25
2023-05-18T15:24:00.685Z,2.30
2023-05-18T15:25:01.165Z,2.34
2023-05-18T15:26:01.572Z,2.26
2023-05-18T15:27:02.018Z,2.27
2023-05-18T15:28:02.450Z,2.29
2023-05-18T15:29:02.907Z,2.30
2023-05-18T15:30:03.356Z,2.29
2023-05-18T15:31:03.781Z,2.25
2023-05-18T15:32:04.302Z,2.25
2023-05-18T15:33:04.724Z,2.30
2023-05-18T15:34:05.096Z,2.31
2023-05-18T15:35:05.566Z,2.32
2023-05-18T15:36:05.984Z,2.40
2023-05-18T15:37:06.442Z,2.42
2023-05-18T15:38:06.869Z,2.37
2023-05-18T15:39:07.316Z,2.38
2023-05-18T15:40:07.776Z,2.36
2023-05-18T15:41:08.192Z,2.36
2023-05-18T15:42:08.629Z,2.35
2023-05-18T15:43:09.078Z,2.33
2023-05-18T15:44:09.520Z,2.28
2023-05-18T15:45:09.978Z,2.31
2023-05-18T15:46:10.480Z,2.35
2023-05-18T15:47:10.841Z,2.42
2023-05-18T15:48:11.348Z,2.45
2023-05-18T15:49:11.721Z,2.47
2023-05-18T15:50:12.182Z,2.40
2023-05-18T15:51:12.609Z,2.36
2023-05-18T15:52:13.038Z,2.38
2023-05-18T15:53:13.487Z,2.27
2023-05-18T15:54:13.948Z,2.24
2023-05-18T15:55:14.393Z,2.24
2023-05-18T15:56:14.806Z,2.28
2023-05-18T15:57:15.253Z,2.22
2023-05-18T15:58:15.690Z,2.18
2023-05-18T15:59:16.143Z,2.30
2023-05-18T16:00:16.599Z,2.35
2023-05-18T16:01:17.097Z,2.38
2023-05-18T16:02:17.494Z,2.41
2023-05-18T16:03:17.952Z,2.36
2023-05-18T16:04:18.339Z,2.36
2023-05-18T16:05:18.816Z,2.38
2023-05-18T16:06:19.222Z,2.47
2023-05-18T16:07:19.666Z,2.54
2023-05-18T16:08:20.109Z,2.44
2023-05-18T16:09:20.549Z,2.52
2023-05-18T16:10:21.007Z,2.60
2023-05-18T16:11:21.435Z,2.64
2023-05-18T16:12:21.870Z,2.54
2023-05-18T16:13:22.313Z,2.53
2023-05-18T16:14:22.747Z,2.61
2023-05-18T16:15:23.207Z,2.51
2023-05-18T16:16:23.682Z,2.45
2023-05-18T16:17:24.164Z,2.53
2023-05-18T16:18:24.529Z,2.52
2023-05-18T16:19:24.996Z,2.47
2023-05-18T16:20:25.409Z,2.38
2023-05-18T16:21:25.833Z,2.45
2023-05-18T16:22:26.272Z,2.50
2023-05-18T16:23:26.725Z,2.53
2023-05-18T16:24:27.157Z,2.58
2023-05-18T16:25:27.621Z,2.56
2023-05-18T16:26:28.030Z,2.60
2023-05-18T16:27:28.472Z,2.60
2023-05-18T16:28:28.930Z,2.65
2023-05-18T16:29:29.352Z,2.64
2023-05-18T16:30:30.190Z,2.68
2023-05-18T16:31:30.261Z,2.66
2023-05-18T16:32:30.681Z,2.66
2023-05-18T16:33:31.110Z,2.71
2023-05-18T16:34:31.544Z,2.69
2023-05-18T16:35:32.013Z,2.66
2023-05-18T16:36:32.429Z,2.69
2023-05-18T16:37:32.871Z,2.53
2023-05-18T16:38:33.345Z,2.57
2023-05-18T16:39:33.754Z,2.54
2023-05-18T16:40:34.289Z,2.50
2023-05-18T16:41:34.671Z,2.54
2023-05-18T16:42:35.073Z,2.51
2023-05-18T16:43:35.512Z,2.52
2023-05-18T16:44:35.942Z,2.49
2023-05-18T16:45:36.398Z,2.52
2023-05-18T16:46:36.872Z,2.59
2023-05-18T16:47:37.308Z,2.72
2023-05-18T16:48:37.697Z,2.78
2023-05-18T16:49:38.137Z,2.81
2023-05-18T16:50:38.596Z,2.77
2023-05-18T16:51:39.029Z,2.78
2023-05-18T16:52:39.455Z,2.79
2023-05-18T16:53:39.902Z,2.81
2023-05-18T16:54:40.333Z,2.81
2023-05-18T16:55:40.787Z,2.81
2023-05-18T16:56:41.209Z,2.82
2023-05-18T16:57:41.650Z,2.78
2023-05-18T16:58:42.132Z,2.83
2023-05-18T16:59:42.577Z,2.78
2023-05-18T17:00:42.974Z,2.78
2023-05-18T17:01:43.434Z,2.76
2023-05-18T17:02:43.947Z,2.77
2023-05-18T17:03:44.338Z,2.71
2023-05-18T17:04:44.873Z,1.80
2023-05-18T17:05:45.184Z,0.99
2023-05-18T17:06:45.592Z,0.79
2023-05-18T17:07:46.032Z,0.74
2023-05-18T17:08:46.484Z,0.77
2023-05-18T17:09:46.904Z,0.81
2023-05-18T17:10:47.365Z,1.08
2023-05-18T17:11:47.793Z,1.18
2023-05-18T17:12:48.220Z,1.08
2023-05-18T17:13:48.662Z,1.05
2023-05-18T17:14:51.442Z,1.15
2023-05-18T17:15:49.580Z,1.22
2023-05-18T17:16:49.968Z,1.25
2023-05-18T17:17:50.440Z,1.34
2023-05-18T17:18:50.884Z,1.45
2023-05-18T17:19:51.288Z,1.67
2023-05-18T17:20:51.736Z,1.80
2023-05-18T17:21:52.176Z,1.85
2023-05-18T17:22:52.606Z,1.88
2023-05-18T17:23:53.038Z,1.94
2023-05-18T17:24:53.481Z,1.99
2023-05-18T17:26:00.898Z,2.05
2023-05-18T17:26:54.348Z,2.00
2023-05-18T17:27:54.792Z,2.03
2023-05-18T17:28:55.227Z,2.08
2023-05-18T17:29:55.667Z,2.15
2023-05-18T17:30:56.144Z,2.34
2023-05-18T17:31:56.654Z,2.31
2023-05-18T17:32:57.050Z,2.34
2023-05-18T17:33:57.413Z,2.32
2023-05-18T17:34:57.857Z,2.31
2023-05-18T17:35:58.396Z,2.45
2023-05-18T17:36:58.742Z,2.49
2023-05-18T17:37:59.165Z,2.50
2023-05-18T17:38:59.600Z,2.44
2023-05-18T17:40:00.058Z,2.44
2023-05-18T17:41:00.500Z,2.49
2023-05-18T17:42:00.913Z,2.48
2023-05-18T17:43:01.360Z,2.43
2023-05-18T17:44:01.824Z,2.30
2023-05-18T17:45:02.225Z,2.34
2023-05-18T17:46:02.691Z,2.32
2023-05-18T17:47:03.160Z,2.30
2023-05-18T17:48:03.568Z,2.31
2023-05-18T17:49:03.976Z,2.37
2023-05-18T17:50:04.415Z,2.33
2023-05-18T17:51:04.880Z,2.44
2023-05-18T17:52:05.293Z,2.48
2023-05-18T17:53:05.735Z,2.43
2023-05-18T17:54:06.165Z,2.43
2023-05-18T17:55:06.615Z,2.40
2023-05-18T17:56:07.061Z,2.38
2023-05-18T17:57:07.489Z,2.46
2023-05-18T17:58:07.922Z,2.51
2023-05-18T17:59:08.365Z,2.58
2023-05-18T18:00:08.792Z,2.61
2023-05-18T18:01:09.354Z,2.64
2023-05-18T18:02:09.668Z,2.62
2023-05-18T18:03:10.220Z,2.68
2023-05-18T18:04:10.637Z,2.71
2023-05-18T18:05:10.984Z,2.72
2023-05-18T18:06:11.444Z,2.69
2023-05-18T18:07:11.877Z,2.71
2023-05-18T18:08:12.298Z,2.67
2023-05-18T18:09:12.745Z,2.61
2023-05-18T18:10:13.175Z,2.67
2023-05-18T18:11:13.657Z,2.73
2023-05-18T18:12:14.050Z,2.74
2023-05-18T18:13:14.485Z,2.77
2023-05-18T18:14:14.924Z,2.74
2023-05-18T18:15:15.366Z,2.77
2023-05-18T18:16:15.861Z,2.79
2023-05-18T18:17:16.270Z,2.76
2023-05-18T18:18:16.677Z,2.78
2023-05-18T18:19:17.170Z,2.81
2023-05-18T18:20:17.548Z,2.83
2023-05-18T18:21:18.010Z,2.84
2023-05-18T18:22:18.428Z,2.84
2023-05-18T18:23:18.867Z,2.82
2023-05-18T18:24:19.303Z,2.81
2023-05-18T18:25:19.746Z,2.78
2023-05-18T18:26:20.185Z,2.84
2023-05-18T18:27:20.609Z,2.88
2023-05-18T18:28:21.048Z,2.90
2023-05-18T18:29:21.488Z,2.90
2023-05-18T18:30:21.933Z,2.88
2023-05-18T18:31:22.410Z,2.90
2023-05-18T18:32:22.802Z,2.88
2023-05-18T18:33:23.243Z,2.90
2023-05-18T18:34:23.672Z,2.91
2023-05-18T18:35:24.135Z,2.87
2023-05-18T18:36:26.373Z,2.88
2023-05-18T18:37:24.983Z,2.90
2023-05-18T18:38:25.414Z,2.86
2023-05-18T18:39:25.873Z,2.88
2023-05-18T18:40:26.288Z,2.90
2023-05-18T18:41:26.745Z,2.91
2023-05-18T18:42:27.155Z,2.91
2023-05-18T18:43:27.599Z,2.91
2023-05-18T18:44:28.031Z,2.87
2023-05-18T18:45:28.473Z,2.90
2023-05-18T18:46:28.950Z,2.90
2023-05-18T18:47:29.363Z,2.87
2023-05-18T18:48:29.777Z,2.87
2023-05-18T18:49:30.211Z,2.88
2023-05-18T18:50:30.822Z,2.86
2023-05-18T18:51:31.108Z,2.83
2023-05-18T18:52:31.516Z,2.86
2023-05-18T18:53:31.961Z,2.83
2023-05-18T18:54:32.391Z,2.83
2023-05-18T18:55:33.125Z,2.84
2023-05-18T18:56:33.295Z,2.87
2023-05-18T18:57:33.711Z,2.90
2023-05-18T18:58:34.135Z,2.90
2023-05-18T18:59:34.578Z,2.88
2023-05-18T19:00:35.019Z,2.88
2023-05-18T19:01:35.491Z,2.87
2023-05-18T19:02:35.888Z,2.91
2023-05-18T19:03:36.324Z,2.91
2023-05-18T19:04:36.785Z,2.94
2023-05-18T19:05:37.189Z,2.95
2023-05-18T19:06:37.657Z,2.96
2023-05-18T19:07:38.066Z,2.95
2023-05-18T19:08:38.509Z,2.95
2023-05-18T19:09:38.937Z,2.96
2023-05-18T19:10:39.378Z,2.95
2023-05-18T19:11:39.825Z,2.95
2023-05-18T19:12:40.237Z,2.96
2023-05-18T19:13:40.678Z,2.95
2023-05-18T19:14:41.126Z,2.95
2023-05-18T19:15:41.555Z,2.95
2023-05-18T19:16:42.115Z,2.94
2023-05-18T19:17:42.497Z,2.91
2023-05-18T19:18:42.897Z,2.94
2023-05-18T19:19:43.304Z,2.92
2023-05-18T19:20:43.731Z,2.96
2023-05-18T19:21:44.182Z,3.03
2023-05-18T19:22:44.593Z,3.03
2023-05-18T19:23:45.035Z,2.98
2023-05-18T19:24:45.478Z,3.02
2023-05-18T19:25:45.902Z,3.00
2023-05-18T19:26:46.365Z,3.02
2023-05-18T19:27:46.774Z,2.99
2023-05-18T19:28:47.209Z,3.02
2023-05-18T19:29:47.644Z,2.99
2023-05-18T19:30:48.110Z,2.99
2023-05-18T19:31:48.623Z,2.99
2023-05-18T19:32:49.034Z,3.02
2023-05-18T19:33:49.387Z,2.99
2023-05-18T19:34:49.818Z,2.98
2023-05-18T19:35:50.259Z,2.98
2023-05-18T19:36:50.703Z,2.98
2023-05-18T19:37:51.141Z,2.98
2023-05-18T19:38:51.560Z,3.00
2023-05-18T19:39:52.010Z,3.00
2023-05-18T19:40:52.431Z,2.99
2023-05-18T19:41:52.888Z,2.99
2023-05-18T19:42:53.310Z,2.99
2023-05-18T19:43:53.736Z,3.00
2023-05-18T19:44:54.188Z,2.98
2023-05-18T19:45:54.624Z,2.95
2023-05-18T19:46:55.060Z,2.95
2023-05-18T19:47:55.513Z,2.96
2023-05-18T19:48:56.600Z,2.96
2023-05-18T19:49:56.352Z,2.99
2023-05-18T19:50:56.790Z,2.99
2023-05-18T19:51:57.237Z,2.99
2023-05-18T19:52:57.667Z,3.00
2023-05-18T19:53:58.089Z,2.98
2023-05-18T19:54:58.527Z,2.98
2023-05-18T19:55:58.964Z,2.98
2023-05-18T19:56:59.413Z,3.00
2023-05-18T19:57:59.831Z,3.00
2023-05-18T19:59:00.264Z,2.99
2023-05-18T20:00:00.709Z,2.95
2023-05-18T20:01:01.188Z,2.96
2023-05-18T20:02:01.588Z,2.95
2023-05-18T20:03:02.031Z,2.96
2023-05-18T20:04:02.490Z,2.94
2023-05-18T20:05:03.831Z,2.98
2023-05-18T20:06:03.321Z,2.95
2023-05-18T20:07:03.781Z,2.96
2023-05-18T20:08:04.197Z,2.96
2023-05-18T20:09:04.617Z,2.98
2023-05-18T20:10:05.060Z,2.95
2023-05-18T20:11:05.494Z,2.95
2023-05-18T20:12:06.028Z,2.95
2023-05-18T20:13:06.358Z,2.96
2023-05-18T20:14:06.794Z,2.95
2023-05-18T20:15:07.264Z,2.95
2023-05-18T20:16:07.709Z,2.95
2023-05-18T20:17:08.131Z,2.95
2023-05-18T20:18:08.606Z,2.95
2023-05-18T20:19:09.104Z,2.95
2023-05-18T20:20:09.409Z,2.95
2023-05-18T20:21:09.842Z,2.94
2023-05-18T20:22:10.308Z,2.96
2023-05-18T20:23:10.737Z,2.96
2023-05-18T20:24:11.155Z,2.98
2023-05-18T20:25:11.586Z,2.92
2023-05-18T20:26:12.036Z,2.91
2023-05-18T20:27:12.473Z,2.91
2023-05-18T20:28:12.903Z,2.92
2023-05-18T20:29:13.323Z,2.90
2023-05-18T20:30:13.759Z,2.86
2023-05-18T20:31:14.219Z,2.88
2023-05-18T20:32:14.656Z,2.90
2023-05-18T20:33:15.080Z,2.90
2023-05-18T20:34:15.499Z,2.91
2023-05-18T20:35:15.931Z,2.92
2023-05-18T20:36:16.375Z,2.95
2023-05-18T20:37:16.823Z,2.92
2023-05-18T20:38:17.245Z,2.96
2023-05-18T20:39:17.686Z,2.94
2023-05-18T20:40:18.115Z,2.94
2023-05-18T20:41:18.545Z,2.92
2023-05-18T20:42:18.997Z,2.94
2023-05-18T20:43:19.425Z,2.90
2023-05-18T20:44:19.852Z,2.91
2023-05-18T20:45:20.284Z,2.87
2023-05-18T20:46:20.742Z,2.88
2023-05-18T20:47:21.262Z,2.87
2023-05-18T20:48:21.590Z,2.88
2023-05-18T20:49:22.038Z,2.90
2023-05-18T20:50:22.466Z,2.90
2023-05-18T20:51:23.137Z,2.92
2023-05-18T20:52:23.359Z,2.95
2023-05-18T20:53:23.767Z,2.92
2023-05-18T20:54:24.206Z,2.92
2023-05-18T20:55:24.639Z,2.94
2023-05-18T20:56:25.073Z,2.94
2023-05-18T20:57:25.527Z,2.91
2023-05-18T20:58:25.988Z,2.94
2023-05-18T20:59:26.373Z,2.94
2023-05-18T21:00:26.816Z,2.96
2023-05-18T21:01:27.274Z,2.91
2023-05-18T21:02:27.735Z,2.91
2023-05-18T21:03:28.179Z,2.91
2023-05-18T21:04:28.553Z,2.90
2023-05-18T21:05:28.987Z,2.95
2023-05-18T21:06:29.428Z,2.95
2023-05-18T21:07:29.878Z,2.94
2023-05-18T21:08:30.294Z,2.96
2023-05-18T21:09:30.725Z,2.96
2023-05-18T21:10:31.399Z,2.94
2023-05-18T21:11:31.593Z,2.92
2023-05-18T21:12:32.105Z,2.96
2023-05-18T21:13:32.464Z,2.95
2023-05-18T21:14:32.911Z,2.95
2023-05-18T21:15:33.333Z,2.95
2023-05-18T21:16:33.849Z,2.94
2023-05-18T21:17:34.260Z,2.94
2023-05-18T21:18:34.733Z,2.92
2023-05-18T21:19:35.078Z,2.94
2023-05-18T21:20:35.511Z,2.90
2023-05-18T21:21:35.952Z,2.88
2023-05-18T21:22:36.413Z,2.91
2023-05-18T21:23:36.834Z,2.84
2023-05-18T21:24:37.297Z,2.90
2023-05-18T21:25:37.688Z,2.91
2023-05-18T21:26:38.141Z,2.94
2023-05-18T21:27:38.584Z,2.90
2023-05-18T21:28:38.997Z,2.90
2023-05-18T21:29:39.426Z,2.90
2023-05-18T21:30:39.874Z,2.91
2023-05-18T21:31:40.383Z,2.87
2023-05-18T21:32:40.886Z,2.90
2023-05-18T21:33:41.226Z,2.88
2023-05-18T21:34:43.613Z,2.95
2023-05-18T21:35:42.035Z,2.92
2023-05-18T21:36:42.477Z,2.95
2023-05-18T21:37:42.929Z,2.98
2023-05-18T21:38:43.377Z,2.96
2023-05-18T21:39:43.784Z,2.92
2023-05-18T21:40:44.370Z,2.90
2023-05-18T21:41:44.648Z,2.88
2023-05-18T21:42:45.225Z,2.87
2023-05-18T21:43:45.527Z,2.90
2023-05-18T21:44:45.954Z,2.92
2023-05-18T21:45:46.417Z,2.88
2023-05-18T21:46:46.839Z,2.91
2023-05-18T21:47:47.296Z,2.94
2023-05-18T21:48:47.702Z,2.90
2023-05-18T21:49:48.124Z,2.91
2023-05-18T21:50:48.565Z,2.88
2023-05-18T21:51:49.010Z,2.91
2023-05-18T21:52:49.447Z,2.90
2023-05-18T21:53:49.864Z,2.88
2023-05-18T21:54:50.313Z,2.90
2023-05-18T21:55:50.741Z,2.88
2023-05-18T21:56:51.173Z,2.90
2023-05-18T21:57:51.638Z,2.94
2023-05-18T21:58:52.078Z,2.91
2023-05-18T21:59:52.477Z,2.91
2023-05-18T22:00:52.950Z,2.94
2023-05-18T22:01:53.352Z,2.91
2023-05-18T22:02:53.849Z,2.91
2023-05-18T22:03:54.303Z,2.92
2023-05-18T22:04:54.662Z,2.94
2023-05-18T22:05:55.090Z,2.96
2023-05-18T22:06:55.541Z,2.94
2023-05-18T22:07:55.975Z,2.88
2023-05-18T22:08:56.389Z,2.86
2023-05-18T22:09:56.830Z,2.90
2023-05-18T22:10:57.283Z,2.88
2023-05-18T22:11:57.701Z,2.87
2023-05-18T22:12:58.144Z,2.91
2023-05-18T22:13:58.575Z,2.94
2023-05-18T22:14:58.996Z,2.90
2023-05-18T22:15:59.432Z,2.90
2023-05-18T22:16:59.887Z,2.92
2023-05-18T22:18:00.325Z,2.92
2023-05-18T22:19:00.774Z,2.91
2023-05-18T22:20:01.187Z,2.96
2023-05-18T22:21:01.605Z,2.91